createdAt,value
2019-03-31T00:01:39.013Z,12.00
2019-03-31T00:04:12.239Z,12.53
2019-03-31T00:06:45.512Z,12.00
2019-03-31T00:09:18.833Z,10.90
2019-03-31T00:11:52.096Z,10.73
2019-03-31T00:14:25.323Z,12.13
2019-03-31T00:16:58.507Z,10.90
2019-03-31T00:19:31.750Z,11.70
2019-03-31T00:22:05.041Z,11.53
2019-03-31T00:24:38.268Z,11.77
2019-03-31T00:27:11.517Z,11.57
2019-03-31T00:29:44.760Z,10.80
2019-03-31T00:32:18.006Z,10.80
2019-03-31T00:34:51.241Z,10.60
2019-03-31T00:37:24.438Z,11.10
2019-03-31T00:39:57.674Z,11.00
2019-03-31T00:42:30.924Z,11.00
2019-03-31T00:45:04.182Z,10.37
2019-03-31T00:47:37.607Z,10.13
2019-03-31T00:50:10.846Z,10.03
2019-03-31T00:52:44.115Z,9.27
2019-03-31T00:55:17.447Z,10.43
2019-03-31T00:57:50.697Z,10.20
2019-03-31T01:00:41.545Z,10.73
2019-03-31T01:03:16.408Z,9.90
2019-03-31T01:05:49.637Z,10.83
2019-03-31T01:08:23.234Z,10.33
2019-03-31T01:10:57.528Z,10.37
2019-03-31T01:13:30.927Z,10.67
2019-03-31T01:16:04.329Z,10.07
2019-03-31T01:18:38.181Z,11.03
2019-03-31T01:21:11.473Z,11.37
2019-03-31T01:23:44.941Z,11.10
2019-03-31T01:26:20.997Z,9.90
2019-03-31T01:28:54.996Z,10.23
2019-03-31T01:31:50.530Z,9.37
2019-03-31T01:34:22.744Z,10.03
2019-03-31T01:36:55.980Z,9.80
2019-03-31T01:39:31.447Z,11.43
2019-03-31T01:42:04.677Z,10.47
2019-03-31T01:44:37.931Z,10.67
2019-03-31T01:47:11.881Z,10.67
2019-03-31T01:49:45.208Z,10.10
2019-03-31T01:52:18.510Z,11.50
2019-03-31T01:54:52.082Z,10.27
2019-03-31T01:57:25.296Z,10.93
2019-03-31T01:59:58.554Z,10.77
2019-03-31T02:02:31.781Z,11.50
2019-03-31T02:05:05.742Z,11.07
2019-03-31T02:07:40.141Z,12.07
2019-03-31T02:10:13.393Z,11.27
2019-03-31T02:12:46.605Z,12.33
2019-03-31T02:15:21.023Z,11.83
2019-03-31T02:17:54.248Z,12.27
2019-03-31T02:20:27.498Z,11.63
2019-03-31T02:23:00.740Z,11.40
2019-03-31T02:25:33.993Z,10.43
2019-03-31T02:28:07.220Z,11.73
2019-03-31T02:30:40.495Z,10.83
2019-03-31T02:33:13.645Z,11.83
2019-03-31T02:35:46.903Z,11.67
2019-03-31T02:38:20.140Z,11.07
2019-03-31T02:40:53.384Z,10.87
2019-03-31T02:43:26.619Z,10.90
2019-03-31T02:45:59.872Z,10.47
2019-03-31T02:48:33.109Z,10.27
2019-03-31T02:51:06.306Z,10.20
2019-03-31T02:53:39.558Z,11.57
2019-03-31T02:56:12.847Z,10.30
2019-03-31T02:58:46.098Z,11.00
2019-03-31T03:01:19.338Z,9.90
2019-03-31T03:03:52.587Z,8.67
2019-03-31T03:06:26.251Z,8.77
2019-03-31T03:09:01.070Z,8.17
2019-03-31T03:11:36.425Z,8.30
2019-03-31T03:14:09.651Z,8.93
2019-03-31T03:16:42.905Z,8.87
2019-03-31T03:19:16.113Z,9.03
2019-03-31T03:21:49.453Z,8.47
2019-03-31T03:24:22.649Z,9.00
2019-03-31T03:26:56.122Z,9.27
2019-03-31T03:29:29.416Z,8.63
2019-03-31T03:32:03.729Z,8.47
2019-03-31T03:34:37.001Z,8.67
2019-03-31T03:37:10.263Z,9.17
2019-03-31T03:39:43.478Z,10.17
2019-03-31T03:42:16.724Z,9.53
2019-03-31T03:44:49.951Z,8.30
2019-03-31T03:47:23.211Z,9.07
2019-03-31T03:49:56.439Z,9.27
2019-03-31T03:52:29.681Z,8.80
2019-03-31T03:55:02.912Z,9.20
2019-03-31T03:57:36.163Z,9.43
2019-03-31T04:00:09.416Z,8.80
2019-03-31T04:02:42.681Z,9.70
2019-03-31T04:05:15.886Z,8.83
2019-03-31T04:07:49.133Z,9.27
2019-03-31T04:11:21.831Z,8.37
2019-03-31T04:13:55.434Z,7.83
2019-03-31T04:16:28.700Z,7.97
2019-03-31T04:19:01.935Z,8.37
2019-03-31T04:21:35.164Z,8.57
2019-03-31T04:24:08.394Z,8.57
2019-03-31T04:26:41.646Z,9.73
2019-03-31T04:29:14.879Z,9.17
2019-03-31T04:31:48.132Z,8.80
2019-03-31T04:34:21.266Z,8.57
2019-03-31T04:36:54.499Z,8.63
2019-03-31T04:39:27.723Z,8.30
2019-03-31T04:42:00.971Z,9.07
2019-03-31T04:44:34.196Z,7.97
2019-03-31T04:47:07.444Z,9.13
2019-03-31T04:49:40.710Z,9.43
2019-03-31T04:52:13.948Z,8.47
2019-03-31T04:54:47.213Z,8.80
2019-03-31T04:57:20.424Z,9.50
2019-03-31T04:59:53.677Z,8.13
2019-03-31T05:02:27.445Z,8.67
2019-03-31T05:05:00.855Z,8.00
2019-03-31T05:07:34.136Z,8.27
2019-03-31T05:10:07.703Z,6.53
2019-03-31T05:12:40.915Z,7.63
2019-03-31T05:15:15.230Z,7.40
2019-03-31T05:17:48.448Z,7.57
2019-03-31T05:20:21.689Z,7.10
2019-03-31T05:23:03.814Z,7.37
2019-03-31T05:25:37.339Z,7.53
2019-03-31T05:28:10.571Z,8.03
2019-03-31T05:30:43.800Z,7.83
2019-03-31T05:33:17.146Z,7.67
2019-03-31T05:35:50.394Z,8.17
2019-03-31T05:38:23.990Z,8.70
2019-03-31T05:40:57.163Z,7.90
2019-03-31T05:43:30.402Z,7.77
2019-03-31T05:46:03.625Z,7.93
2019-03-31T05:48:36.858Z,7.77
2019-03-31T05:51:10.089Z,8.10
2019-03-31T05:53:43.390Z,9.03
2019-03-31T05:56:16.659Z,8.97
2019-03-31T05:58:49.957Z,8.80
2019-03-31T06:01:31.649Z,9.00
2019-03-31T06:04:04.954Z,8.93
2019-03-31T06:06:39.276Z,9.47
2019-03-31T06:09:13.568Z,8.90
2019-03-31T06:11:46.898Z,8.30
2019-03-31T06:14:20.112Z,8.30
2019-03-31T06:16:53.362Z,8.43
2019-03-31T06:19:26.588Z,8.20
2019-03-31T06:21:59.753Z,8.77
2019-03-31T06:24:33.096Z,10.10
2019-03-31T06:27:06.342Z,9.00
2019-03-31T06:29:39.604Z,8.67
2019-03-31T06:32:13.028Z,9.17
2019-03-31T06:34:47.650Z,7.73
2019-03-31T06:37:21.279Z,8.07
2019-03-31T06:39:54.660Z,8.97
2019-03-31T06:42:28.012Z,8.03
2019-03-31T06:45:01.268Z,8.47
2019-03-31T06:47:34.536Z,8.33
2019-03-31T06:50:08.466Z,9.23
2019-03-31T06:52:41.748Z,8.53
2019-03-31T06:55:15.098Z,8.77
2019-03-31T06:57:55.022Z,8.87
2019-03-31T07:00:27.466Z,8.27
2019-03-31T07:03:00.710Z,8.37
2019-03-31T07:05:33.923Z,8.47
2019-03-31T07:08:07.249Z,8.40
2019-03-31T07:10:40.544Z,8.23
2019-03-31T07:13:13.780Z,8.23
2019-03-31T07:15:46.998Z,8.20
2019-03-31T07:18:20.242Z,8.87
2019-03-31T07:20:53.465Z,8.97
2019-03-31T07:23:26.715Z,8.50
2019-03-31T07:25:59.928Z,8.37
2019-03-31T07:28:33.190Z,8.27
2019-03-31T07:31:06.481Z,7.93
2019-03-31T07:33:39.647Z,8.50
2019-03-31T07:36:13.826Z,7.33
2019-03-31T07:38:47.079Z,7.97
2019-03-31T07:41:20.270Z,8.03
2019-03-31T07:43:53.500Z,7.80
2019-03-31T07:46:26.722Z,8.13
2019-03-31T07:48:59.968Z,8.13
2019-03-31T07:51:33.186Z,7.63
2019-03-31T07:54:06.350Z,8.20
2019-03-31T07:56:39.583Z,9.67
2019-03-31T07:59:12.879Z,9.00
2019-03-31T08:01:46.160Z,9.17
2019-03-31T08:04:19.396Z,8.50
2019-03-31T08:06:52.615Z,8.73
2019-03-31T08:09:25.784Z,9.77
2019-03-31T08:11:59.005Z,9.17
2019-03-31T08:14:32.353Z,9.50
2019-03-31T08:17:05.616Z,8.77
2019-03-31T08:19:38.852Z,8.97
2019-03-31T08:22:12.072Z,8.60
2019-03-31T08:24:45.371Z,9.00
2019-03-31T08:27:18.588Z,8.60
2019-03-31T08:30:00.058Z,9.00
2019-03-31T08:32:28.412Z,9.27
2019-03-31T08:35:01.713Z,10.13
2019-03-31T08:37:36.008Z,9.60
2019-03-31T08:40:11.547Z,9.87
2019-03-31T08:42:44.792Z,9.90
2019-03-31T08:45:18.155Z,9.77
2019-03-31T08:47:51.299Z,9.53
2019-03-31T08:50:24.544Z,9.70
2019-03-31T08:52:57.759Z,9.40
2019-03-31T08:55:31.024Z,8.90
2019-03-31T08:58:04.265Z,10.13
2019-03-31T09:00:47.871Z,10.67
2019-03-31T09:03:21.084Z,9.97
2019-03-31T09:06:01.814Z,9.57
2019-03-31T09:08:29.255Z,9.93
2019-03-31T09:11:02.490Z,9.13
2019-03-31T09:13:35.704Z,8.97
2019-03-31T09:16:08.934Z,8.60
2019-03-31T09:18:42.152Z,10.30
2019-03-31T09:21:15.411Z,9.33
2019-03-31T09:23:48.647Z,9.07
2019-03-31T09:26:21.865Z,8.90
2019-03-31T09:28:55.116Z,8.97
2019-03-31T09:31:28.328Z,9.00
2019-03-31T09:34:01.581Z,8.33
2019-03-31T09:36:34.797Z,8.60
2019-03-31T09:39:08.553Z,7.80
2019-03-31T09:41:41.750Z,7.10
2019-03-31T09:44:14.995Z,7.43
2019-03-31T09:46:48.226Z,6.57
2019-03-31T09:49:21.530Z,6.47
2019-03-31T09:51:54.731Z,6.53
2019-03-31T09:54:27.998Z,4.95
2019-03-31T09:57:01.247Z,5.05
2019-03-31T09:59:34.474Z,4.45
2019-03-31T10:02:07.696Z,4.42
2019-03-31T10:04:40.946Z,4.08
2019-03-31T10:07:14.198Z,5.10
2019-03-31T10:09:47.523Z,4.45
2019-03-31T10:12:20.737Z,5.03
2019-03-31T10:14:54.358Z,4.85
2019-03-31T10:17:27.663Z,4.08
2019-03-31T10:20:00.893Z,4.78
2019-03-31T10:22:34.167Z,4.95
2019-03-31T10:25:08.424Z,4.80
2019-03-31T10:27:41.727Z,4.50
2019-03-31T10:30:18.875Z,5.17
2019-03-31T10:32:52.083Z,5.33
2019-03-31T10:35:25.341Z,5.25
2019-03-31T10:37:58.634Z,5.25
2019-03-31T10:40:31.871Z,5.10
2019-03-31T10:43:05.084Z,4.70
2019-03-31T10:45:38.352Z,4.67
2019-03-31T10:48:20.407Z,4.05
2019-03-31T10:50:46.503Z,4.97
2019-03-31T10:53:19.715Z,4.12
2019-03-31T10:55:53.002Z,4.15
2019-03-31T10:58:26.314Z,4.03
2019-03-31T11:00:59.559Z,3.45
2019-03-31T11:03:33.207Z,3.83
2019-03-31T11:06:06.656Z,4.97
2019-03-31T11:08:39.970Z,4.30
2019-03-31T11:11:13.210Z,3.47
2019-03-31T11:13:46.356Z,4.22
2019-03-31T11:16:19.593Z,3.83
2019-03-31T11:18:52.798Z,3.60
2019-03-31T11:21:44.017Z,4.37
2019-03-31T11:24:17.164Z,3.93
2019-03-31T11:26:50.409Z,4.73
2019-03-31T11:29:23.631Z,4.80
2019-03-31T11:31:56.965Z,5.63
2019-03-31T11:34:30.171Z,4.60
2019-03-31T11:37:13.483Z,4.07
2019-03-31T11:39:38.333Z,4.57
2019-03-31T11:42:11.627Z,4.13
2019-03-31T11:44:44.835Z,4.33
2019-03-31T11:47:18.111Z,5.03
2019-03-31T11:49:51.263Z,4.63
2019-03-31T11:52:24.908Z,4.60
2019-03-31T11:54:58.150Z,4.53
2019-03-31T11:57:31.382Z,4.77
2019-03-31T12:00:05.515Z,5.30
2019-03-31T12:02:38.823Z,5.03
2019-03-31T12:05:12.082Z,5.03
2019-03-31T12:07:47.142Z,6.40
2019-03-31T12:10:20.379Z,5.80
2019-03-31T12:12:53.663Z,5.77
2019-03-31T12:15:26.946Z,5.80
2019-03-31T12:18:00.181Z,5.50
2019-03-31T12:20:33.386Z,5.17
2019-03-31T12:23:06.748Z,5.03
2019-03-31T12:25:40.004Z,5.13
2019-03-31T12:28:13.256Z,5.57
2019-03-31T12:30:46.457Z,5.53
2019-03-31T12:33:19.693Z,5.30
2019-03-31T12:35:52.907Z,5.07
2019-03-31T12:38:26.150Z,6.07
2019-03-31T12:40:59.407Z,5.17
2019-03-31T12:43:32.659Z,5.93
2019-03-31T12:46:05.960Z,6.20
2019-03-31T12:48:39.201Z,6.00
2019-03-31T12:51:12.410Z,5.47
2019-03-31T12:53:45.704Z,5.63
2019-03-31T12:56:18.962Z,5.50
2019-03-31T12:58:52.207Z,5.30
2019-03-31T13:01:25.442Z,5.63
2019-03-31T13:03:58.724Z,5.33
2019-03-31T13:06:31.961Z,4.80
2019-03-31T13:09:06.328Z,4.60
2019-03-31T13:11:39.562Z,4.93
2019-03-31T13:14:12.764Z,5.27
2019-03-31T13:16:45.928Z,5.00
2019-03-31T13:19:19.147Z,5.30
2019-03-31T13:21:52.480Z,5.20
2019-03-31T13:24:25.688Z,5.20
2019-03-31T13:26:58.938Z,3.97
2019-03-31T13:29:32.195Z,4.90
2019-03-31T13:32:05.632Z,5.13
2019-03-31T13:34:38.868Z,5.73
2019-03-31T13:37:12.075Z,5.33
2019-03-31T13:39:45.310Z,5.50
2019-03-31T13:42:18.527Z,5.27
2019-03-31T13:44:51.763Z,5.10
2019-03-31T13:47:25.067Z,5.40
2019-03-31T13:49:58.285Z,5.37
2019-03-31T13:52:31.525Z,5.20
2019-03-31T13:55:05.219Z,4.63
2019-03-31T13:57:40.144Z,4.23
2019-03-31T14:00:14.310Z,4.70
2019-03-31T14:02:47.589Z,4.47
2019-03-31T14:05:20.793Z,5.13
2019-03-31T14:07:54.030Z,4.37
2019-03-31T14:10:27.370Z,4.73
2019-03-31T14:13:00.586Z,4.17
2019-03-31T14:15:33.906Z,4.90
2019-03-31T14:18:07.132Z,4.57
2019-03-31T14:20:40.363Z,4.57
2019-03-31T14:23:13.607Z,5.13
2019-03-31T14:25:46.839Z,5.20
2019-03-31T14:28:20.100Z,4.90
2019-03-31T14:30:53.279Z,4.63
2019-03-31T14:33:26.488Z,4.50
2019-03-31T14:35:59.713Z,4.33
2019-03-31T14:38:39.891Z,4.17
2019-03-31T14:41:07.892Z,5.33
2019-03-31T14:43:41.098Z,4.50
2019-03-31T14:46:14.339Z,4.87
2019-03-31T14:48:47.556Z,5.43
2019-03-31T14:51:23.480Z,5.30
2019-03-31T14:53:56.686Z,5.83
2019-03-31T14:56:29.956Z,4.30
2019-03-31T14:59:03.176Z,4.87
2019-03-31T15:01:36.403Z,4.67
2019-03-31T15:04:09.620Z,4.90
2019-03-31T15:06:42.851Z,4.67
2019-03-31T15:09:16.062Z,4.93
2019-03-31T15:11:49.234Z,5.57
2019-03-31T15:14:22.453Z,5.70
2019-03-31T15:16:55.697Z,6.37
2019-03-31T15:19:28.919Z,5.70
2019-03-31T15:22:02.162Z,5.40
2019-03-31T15:24:35.372Z,5.07
2019-03-31T15:27:08.612Z,4.93
2019-03-31T15:29:41.823Z,5.33
2019-03-31T15:32:15.067Z,5.10
2019-03-31T15:34:48.278Z,4.80
2019-03-31T15:37:21.530Z,5.83
2019-03-31T15:39:54.763Z,7.40
2019-03-31T15:42:28.080Z,7.17
2019-03-31T15:45:01.221Z,8.50
2019-03-31T15:47:35.636Z,7.50
2019-03-31T15:50:08.834Z,7.97
2019-03-31T15:52:42.088Z,7.50
2019-03-31T15:55:15.325Z,8.10
2019-03-31T15:57:48.586Z,7.80
2019-03-31T16:00:21.803Z,7.67
2019-03-31T16:02:55.029Z,8.47
2019-03-31T16:05:28.283Z,7.63
2019-03-31T16:08:00.749Z,7.53
2019-03-31T16:10:33.200Z,7.97
2019-03-31T16:13:05.615Z,7.90
2019-03-31T16:15:38.103Z,8.27
2019-03-31T16:18:10.536Z,8.20
2019-03-31T16:20:43.015Z,8.33
2019-03-31T16:23:15.443Z,7.87
2019-03-31T16:25:50.506Z,7.97
2019-03-31T16:28:22.920Z,7.93
2019-03-31T16:30:55.311Z,8.60
2019-03-31T16:33:27.737Z,8.50
2019-03-31T16:36:00.122Z,8.33
2019-03-31T16:38:32.561Z,8.37
2019-03-31T16:41:05.076Z,8.47
2019-03-31T16:43:37.566Z,7.50
2019-03-31T16:46:09.960Z,7.53
2019-03-31T16:48:42.323Z,7.87
2019-03-31T16:51:14.718Z,7.90
2019-03-31T16:53:47.166Z,8.10
2019-03-31T16:56:19.598Z,7.40
2019-03-31T16:58:52.023Z,7.90
2019-03-31T17:01:24.415Z,9.43
2019-03-31T17:03:56.871Z,10.13
2019-03-31T17:06:29.278Z,9.90
2019-03-31T17:09:01.823Z,11.40
2019-03-31T17:11:35.905Z,10.53
2019-03-31T17:14:08.339Z,15.63
2019-03-31T17:16:40.759Z,20.67
2019-03-31T17:19:13.198Z,24.53
2019-03-31T17:21:45.616Z,23.83
2019-03-31T17:24:18.069Z,27.97
2019-03-31T17:26:50.414Z,28.33
2019-03-31T17:29:22.874Z,30.53
2019-03-31T17:31:55.284Z,29.23
2019-03-31T17:34:27.768Z,29.27
2019-03-31T17:37:00.171Z,27.53
2019-03-31T17:39:32.614Z,31.43
2019-03-31T17:42:05.125Z,29.97
2019-03-31T17:44:37.486Z,30.60
2019-03-31T17:47:09.922Z,31.17
2019-03-31T17:49:42.358Z,30.43
2019-03-31T17:52:14.853Z,29.07
2019-03-31T17:54:47.637Z,29.77
2019-03-31T17:57:20.168Z,27.33
2019-03-31T17:59:53.771Z,28.70
2019-03-31T18:02:26.928Z,30.57
2019-03-31T18:04:59.610Z,28.60
2019-03-31T18:07:35.476Z,27.73
2019-03-31T18:10:21.066Z,29.30
2019-03-31T18:12:53.237Z,27.57
2019-03-31T18:15:25.682Z,27.90
2019-03-31T18:17:59.331Z,26.17
2019-03-31T18:20:31.749Z,36.43
2019-03-31T18:23:04.265Z,26.90
2019-03-31T18:25:36.697Z,28.53
2019-03-31T18:28:09.218Z,27.03
2019-03-31T18:30:41.644Z,26.00
2019-03-31T18:33:14.064Z,25.77
2019-03-31T18:35:46.508Z,26.13
2019-03-31T18:38:18.922Z,26.23
2019-03-31T18:40:51.356Z,26.50
2019-03-31T18:43:23.771Z,26.60
2019-03-31T18:45:56.158Z,28.90
2019-03-31T18:48:28.647Z,29.70
2019-03-31T18:51:01.099Z,27.47
2019-03-31T18:53:50.735Z,27.87
2019-03-31T18:56:51.311Z,26.70
2019-03-31T18:59:38.627Z,27.67
2019-03-31T19:02:30.908Z,27.70
2019-03-31T19:05:24.655Z,26.80
2019-03-31T19:08:14.799Z,27.13
2019-03-31T19:10:56.550Z,28.10
2019-03-31T19:13:55.115Z,27.33
2019-03-31T19:16:53.304Z,27.83
2019-03-31T19:19:44.654Z,27.20
2019-03-31T19:22:39.041Z,26.53
2019-03-31T19:25:30.387Z,27.00
2019-03-31T19:28:11.459Z,26.37
2019-03-31T19:30:50.423Z,27.50
2019-03-31T19:33:35.354Z,28.43
2019-03-31T19:36:17.112Z,26.37
2019-03-31T19:39:12.194Z,25.47
2019-03-31T19:42:15.699Z,26.87
2019-03-31T19:44:59.845Z,24.57
2019-03-31T19:48:06.238Z,27.77
2019-03-31T19:51:03.653Z,24.93
2019-03-31T19:54:10.343Z,24.73
2019-03-31T19:56:48.490Z,25.03
2019-03-31T19:59:55.248Z,25.33
2019-03-31T20:02:45.483Z,24.87
2019-03-31T20:05:32.142Z,24.77
2019-03-31T20:08:25.774Z,25.53
2019-03-31T20:11:29.342Z,25.07
2019-03-31T20:14:22.888Z,21.67
2019-03-31T20:17:20.304Z,23.10
2019-03-31T20:20:14.736Z,23.67
2019-03-31T20:23:07.270Z,23.10
2019-03-31T20:26:01.859Z,24.17
2019-03-31T20:28:42.976Z,23.50
2019-03-31T20:31:35.774Z,22.63
2019-03-31T20:34:17.196Z,22.20
2019-03-31T20:37:16.219Z,23.07
2019-03-31T20:40:10.556Z,21.70
2019-03-31T20:43:01.658Z,21.30
2019-03-31T20:45:34.144Z,20.83
2019-03-31T20:48:06.708Z,22.33
2019-03-31T20:50:39.105Z,21.87
2019-03-31T20:53:11.523Z,22.53
2019-03-31T20:55:44.003Z,20.37
2019-03-31T20:58:17.611Z,21.17
2019-03-31T21:00:50.047Z,22.57
2019-03-31T21:03:22.497Z,21.20
2019-03-31T21:05:54.949Z,22.07
2019-03-31T21:08:27.306Z,22.20
2019-03-31T21:10:59.713Z,21.07
2019-03-31T21:13:32.175Z,20.50
2019-03-31T21:16:04.745Z,21.03
2019-03-31T21:18:37.159Z,22.70
2019-03-31T21:21:09.584Z,20.13
2019-03-31T21:23:42.001Z,20.37
2019-03-31T21:26:14.441Z,20.53
2019-03-31T21:28:46.872Z,21.10
2019-03-31T21:31:19.304Z,21.50
2019-03-31T21:33:51.794Z,20.47
2019-03-31T21:36:24.228Z,20.90
2019-03-31T21:38:56.642Z,20.77
2019-03-31T21:41:29.083Z,20.70
2019-03-31T21:44:01.502Z,20.27
2019-03-31T21:46:33.958Z,20.03
2019-03-31T21:49:06.397Z,21.33
2019-03-31T21:51:38.837Z,21.73
2019-03-31T21:54:11.323Z,20.37
2019-03-31T21:56:43.785Z,19.73
2019-03-31T21:59:16.227Z,20.87
2019-03-31T22:01:48.943Z,20.90
2019-03-31T22:04:21.463Z,20.67
2019-03-31T22:06:53.980Z,20.83
2019-03-31T22:09:26.385Z,21.83
2019-03-31T22:11:58.741Z,21.47
2019-03-31T22:14:31.153Z,19.47
2019-03-31T22:17:03.615Z,20.30
2019-03-31T22:19:36.022Z,18.53
2019-03-31T22:22:08.456Z,18.83
2019-03-31T22:24:40.897Z,19.70
2019-03-31T22:27:13.379Z,19.93
2019-03-31T22:29:45.822Z,21.13
2019-03-31T22:32:18.184Z,19.10
2019-03-31T22:34:50.599Z,18.90
2019-03-31T22:37:23.025Z,18.07
2019-03-31T22:39:55.440Z,20.27
2019-03-31T22:42:27.874Z,19.47
2019-03-31T22:45:00.391Z,20.10
2019-03-31T22:47:34.234Z,19.57
2019-03-31T22:50:06.648Z,21.43
2019-03-31T22:52:39.089Z,21.20
2019-03-31T22:55:11.499Z,20.50
2019-03-31T22:57:44.030Z,20.37
2019-03-31T23:00:22.179Z,21.10
2019-03-31T23:02:56.213Z,19.70
2019-03-31T23:05:28.625Z,20.03
2019-03-31T23:08:01.093Z,20.30
2019-03-31T23:10:33.507Z,20.23
2019-03-31T23:13:05.944Z,19.70
2019-03-31T23:15:38.400Z,23.53
2019-03-31T23:18:10.835Z,20.63
2019-03-31T23:20:43.248Z,20.20
2019-03-31T23:23:15.642Z,20.43
2019-03-31T23:25:48.104Z,19.77
2019-03-31T23:28:21.596Z,21.70
2019-03-31T23:30:57.144Z,21.60
2019-03-31T23:33:29.638Z,21.07
2019-03-31T23:36:02.049Z,20.83
2019-03-31T23:38:34.594Z,19.77
2019-03-31T23:41:07.010Z,20.17
2019-03-31T23:43:39.461Z,20.40
2019-03-31T23:46:11.955Z,21.23
2019-03-31T23:48:44.500Z,19.83
2019-03-31T23:51:16.912Z,19.77
2019-03-31T23:53:49.352Z,18.50
2019-03-31T23:56:21.822Z,20.07
2019-03-31T23:58:54.239Z,19.97
